Time;durP1;ratioP1;P1;durP2;ratioP2;P2;SDS_P1;SDS_P2;PMS_P1;PMS_P2;Temp;Humidity;BMP_temperature;BMP_pressure;BME280_temperature;BME280_humidity;BME280_pressure;Samples;Min_cycle;Max_cycle;Signal;HPM_P1;HPM_P2
2021/05/12 00:00:31;;;;;;;2.75;0.98;;;;;;;15.75;46.71;100752.03;1673049;83;21767;-67
2021/05/12 00:02:58;;;;;;;5.53;1.27;;;;;;;15.68;46.60;100749.57;1674294;84;21123;-63
2021/05/12 00:05:25;;;;;;;3.02;1.15;;;;;;;15.61;46.21;100748.50;1678605;83;21807;-63
2021/05/12 00:07:51;;;;;;;3.25;1.10;;;;;;;15.54;46.23;100750.90;1670142;84;21098;-64
2021/05/12 00:10:19;;;;;;;2.35;0.80;;;;;;;15.46;46.28;100745.98;1677613;83;21090;-63
2021/05/12 00:12:45;;;;;;;3.75;1.05;;;;;;;15.38;46.34;100754.19;1673933;83;21145;-64
2021/05/12 00:15:17;;;;;;;3.60;1.00;;;;;;;15.34;46.50;100756.77;1674554;83;21137;-67
2021/05/12 00:17:46;;;;;;;2.67;0.98;;;;;;;15.31;46.70;100757.05;1674965;83;21880;-63
2021/05/12 00:20:16;;;;;;;3.40;1.42;;;;;;;15.26;46.87;100759.30;1671521;83;21187;-64
2021/05/12 00:22:58;;;;;;;4.33;1.40;;;;;;;15.21;46.98;100761.55;1674118;83;21075;-66
2021/05/12 00:25:21;;;;;;;6.08;1.30;;;;;;;15.13;47.12;100763.61;1678009;83;21130;-64
2021/05/12 00:27:48;;;;;;;3.67;1.00;;;;;;;15.08;47.38;100758.38;1671005;83;21115;-64
2021/05/12 00:30:17;;;;;;;3.72;1.10;;;;;;;15.01;47.73;100760.75;1673843;84;21098;-64
2021/05/12 00:32:45;;;;;;;4.15;1.30;;;;;;;14.95;47.91;100764.82;1677919;83;21177;-65
2021/05/12 00:35:12;;;;;;;3.52;1.20;;;;;;;14.86;47.99;100762.53;1679962;83;21094;-66
2021/05/12 00:37:39;;;;;;;3.15;1.15;;;;;;;14.79;48.27;100767.20;1679412;83;21119;-64
2021/05/12 00:40:07;;;;;;;2.95;1.40;;;;;;;14.71;48.53;100768.39;1670830;84;21067;-64
2021/05/12 00:42:33;;;;;;;1.95;0.82;;;;;;;14.66;48.72;100768.34;1676055;83;21182;-63
2021/05/12 00:44:59;;;;;;;4.60;1.17;;;;;;;14.58;48.63;100761.55;1671686;84;21119;-64
2021/05/12 00:47:30;;;;;;;2.70;1.00;;;;;;;14.52;48.55;100764.73;1669540;83;21091;-62
2021/05/12 00:49:57;;;;;;;3.02;1.25;;;;;;;14.49;48.76;100758.39;1677507;83;21083;-62
2021/05/12 00:52:23;;;;;;;4.37;1.40;;;;;;;14.45;48.73;100763.13;1671800;83;21123;-63
2021/05/12 00:54:50;;;;;;;2.98;1.10;;;;;;;14.40;48.36;100759.23;1674617;83;21186;-62
2021/05/12 00:57:16;;;;;;;3.52;1.27;;;;;;;14.31;48.46;100754.30;1669995;83;21054;-63
2021/05/12 00:59:44;;;;;;;1.70;0.60;;;;;;;14.26;48.39;100757.34;1679619;83;21111;-63
2021/05/12 01:02:10;;;;;;;3.00;1.12;;;;;;;14.19;48.37;100758.02;1678842;83;21105;-63
2021/05/12 01:04:38;;;;;;;3.52;1.47;;;;;;;14.08;48.04;100757.67;1673356;84;21087;-63
2021/05/12 01:07:05;;;;;;;3.22;1.50;;;;;;;13.99;48.33;100767.27;1679602;83;21195;-63
2021/05/12 01:09:32;;;;;;;2.92;1.10;;;;;;;13.88;48.38;100759.43;1665311;84;21182;-67
2021/05/12 01:11:59;;;;;;;3.72;1.57;;;;;;;13.82;48.51;100758.17;1678064;83;21141;-69
2021/05/12 01:14:25;;;;;;;3.20;1.00;;;;;;;13.77;48.70;100744.52;1649227;86;21120;-65
2021/05/12 01:16:52;;;;;;;4.17;1.40;;;;;;;13.73;48.65;100739.13;1675285;83;21067;-68
2021/05/12 01:19:18;;;;;;;4.20;1.32;;;;;;;13.65;48.54;100737.17;1675905;83;21170;-63
2021/05/12 01:21:44;;;;;;;5.00;1.50;;;;;;;13.59;48.54;100738.20;1675186;83;21079;-71
2021/05/12 01:24:10;;;;;;;3.10;1.17;;;;;;;13.54;48.95;100749.16;1675588;84;21099;-65
2021/05/12 01:26:37;;;;;;;3.33;1.40;;;;;;;13.50;49.03;100747.73;1683380;83;21134;-64
2021/05/12 01:29:04;;;;;;;2.98;1.02;;;;;;;13.45;48.93;100749.94;1675216;83;21078;-65
2021/05/12 01:31:38;;;;;;;3.42;1.30;;;;;;;13.40;49.14;100749.04;1671031;83;22035;-63
2021/05/12 01:34:06;;;;;;;4.53;1.67;;;;;;;13.33;49.23;100755.34;1673348;83;21652;-67
2021/05/12 01:36:35;;;;;;;3.67;1.60;;;;;;;13.25;49.01;100759.09;1672176;84;21158;-64
2021/05/12 01:39:01;;;;;;;3.55;1.55;;;;;;;13.16;49.52;100763.36;1677809;84;21098;-65
2021/05/12 01:41:28;;;;;;;3.40;1.35;;;;;;;13.09;49.41;100754.74;1673806;83;21103;-66
2021/05/12 01:43:55;;;;;;;6.20;1.62;;;;;;;13.00;49.74;100753.23;1682860;84;21429;-66
2021/05/12 01:46:21;;;;;;;4.33;1.45;;;;;;;12.96;50.03;100755.80;1683923;83;21070;-65
2021/05/12 01:48:47;;;;;;;5.08;1.77;;;;;;;12.90;49.75;100759.44;1682092;83;21561;-63
2021/05/12 01:51:14;;;;;;;3.17;1.12;;;;;;;12.83;49.93;100761.25;1678436;83;22087;-65
2021/05/12 01:53:42;;;;;;;3.37;1.27;;;;;;;12.79;50.22;100772.19;1682060;83;21054;-63
2021/05/12 01:56:09;;;;;;;2.55;0.90;;;;;;;12.72;50.42;100768.39;1680254;83;22068;-66
2021/05/12 01:58:35;;;;;;;4.83;1.00;;;;;;;12.65;50.21;100762.78;1672960;83;21387;-66
2021/05/12 02:01:02;;;;;;;4.85;1.42;;;;;;;12.59;50.62;100777.80;1673081;83;21071;-64
2021/05/12 02:03:28;;;;;;;3.05;1.20;;;;;;;12.56;50.89;100776.77;1675178;83;21080;-64
2021/05/12 02:05:54;;;;;;;3.55;1.25;;;;;;;12.52;50.97;100770.04;1680409;84;21119;-66
2021/05/12 02:08:23;;;;;;;2.67;0.90;;;;;;;12.47;51.03;100767.77;1674290;83;21142;-65
2021/05/12 02:10:53;;;;;;;5.30;1.57;;;;;;;12.43;51.35;100767.19;1673720;83;21134;-65
2021/05/12 02:13:19;;;;;;;3.77;1.50;;;;;;;12.39;51.41;100767.09;1675265;83;21074;-64
2021/05/12 02:15:45;;;;;;;2.98;0.95;;;;;;;12.34;51.44;100772.37;1678647;83;21106;-63
2021/05/12 02:18:13;;;;;;;3.52;1.15;;;;;;;12.30;51.62;100775.74;1675360;83;21027;-64
2021/05/12 02:20:40;;;;;;;2.90;1.00;;;;;;;12.25;51.93;100780.09;1678645;83;21221;-64
2021/05/12 02:23:10;;;;;;;3.83;1.07;;;;;;;12.21;51.95;100779.14;1669797;83;21055;-64
2021/05/12 02:25:37;;;;;;;3.42;1.25;;;;;;;12.15;51.92;100776.50;1673704;83;21122;-67
2021/05/12 02:28:05;;;;;;;5.58;1.35;;;;;;;12.12;52.11;100785.14;1671821;83;21111;-65
2021/05/12 02:30:32;;;;;;;2.87;1.20;;;;;;;12.09;52.19;100786.24;1672952;83;21070;-64
2021/05/12 02:32:58;;;;;;;4.12;1.70;;;;;;;12.07;52.24;100791.64;1674687;83;21139;-64
2021/05/12 02:35:26;;;;;;;3.42;1.42;;;;;;;12.04;52.28;100803.75;1678704;84;21159;-64
2021/05/12 02:37:52;;;;;;;3.62;1.27;;;;;;;12.01;52.19;100805.30;1657811;85;21108;-66
2021/05/12 02:40:20;;;;;;;3.30;1.47;;;;;;;11.97;52.36;100795.97;1637307;86;21147;-65
2021/05/12 02:42:46;;;;;;;3.83;1.20;;;;;;;11.92;52.56;100801.23;1635530;86;21665;-64
2021/05/12 02:45:13;;;;;;;6.05;1.52;;;;;;;11.91;52.85;100797.77;1670165;85;21663;-63
2021/05/12 02:47:39;;;;;;;3.67;1.45;;;;;;;11.88;53.05;100799.30;1650038;84;21154;-67
2021/05/12 02:50:10;;;;;;;3.62;1.25;;;;;;;11.84;53.15;100799.19;1652921;86;21105;-65
2021/05/12 02:52:39;;;;;;;4.12;1.50;;;;;;;11.85;53.63;100799.07;1651878;86;21100;-66
2021/05/12 02:55:07;;;;;;;3.08;1.12;;;;;;;11.86;53.44;100803.85;1651665;84;21130;-65
2021/05/12 02:57:33;;;;;;;3.42;1.07;;;;;;;11.85;53.56;100803.48;1651259;84;21116;-64
2021/05/12 02:59:59;;;;;;;5.53;1.70;;;;;;;11.85;53.04;100807.44;1650833;84;21199;-65
2021/05/12 03:02:26;;;;;;;5.95;1.55;;;;;;;11.84;53.30;100797.88;1648660;84;21123;-68
2021/05/12 03:06:23;;;;;;;3.00;1.02;;;;;;;11.83;53.36;100787.78;1749616;79;22727;-62
2021/05/12 03:08:49;;;;;;;3.25;1.05;;;;;;;11.79;53.49;100796.08;1727434;80;21116;-64
2021/05/12 03:11:15;;;;;;;4.42;1.30;;;;;;;11.79;53.84;100790.80;1724328;82;21127;-67
2021/05/12 03:13:42;;;;;;;3.70;1.52;;;;;;;11.83;53.87;100794.86;1726166;82;21005;-65
2021/05/12 03:16:10;;;;;;;4.58;1.47;;;;;;;11.84;53.93;100799.19;1727901;82;21600;-67
2021/05/12 03:18:36;;;;;;;3.75;1.42;;;;;;;11.82;53.98;100797.16;1724965;82;21092;-65
2021/05/12 03:21:03;;;;;;;5.15;1.25;;;;;;;11.75;53.83;100798.12;1703397;82;21020;-64
2021/05/12 03:23:29;;;;;;;3.40;1.12;;;;;;;11.70;53.99;100799.79;1729385;82;21071;-64
2021/05/12 03:25:55;;;;;;;3.47;1.32;;;;;;;11.67;54.12;100793.92;1726585;82;20969;-63
2021/05/12 03:28:22;;;;;;;3.85;1.55;;;;;;;11.64;54.30;100798.94;1727335;80;20966;-64
2021/05/12 03:30:48;;;;;;;3.52;1.17;;;;;;;11.60;54.37;100785.66;1728691;80;21175;-65
2021/05/12 03:33:14;;;;;;;3.40;1.15;;;;;;;11.59;54.27;100795.00;1730220;81;21112;-65
2021/05/12 03:35:41;;;;;;;2.37;0.75;;;;;;;11.57;54.31;100787.20;1726075;82;21125;-66
2021/05/12 03:38:09;;;;;;;3.37;0.93;;;;;;;11.57;54.21;100785.06;1726542;82;21057;-69
2021/05/12 03:40:36;;;;;;;2.87;0.93;;;;;;;11.59;54.07;100781.81;1727680;80;20992;-65
2021/05/12 03:43:02;;;;;;;2.17;0.72;;;;;;;11.60;53.78;100777.75;1729406;80;20914;-65
2021/05/12 03:45:28;;;;;;;3.40;1.30;;;;;;;11.60;53.75;100775.56;1732972;80;20976;-64
2021/05/12 03:47:55;;;;;;;2.58;1.10;;;;;;;11.56;54.02;100777.61;1727276;81;21094;-65
2021/05/12 03:50:23;;;;;;;2.60;0.90;;;;;;;11.55;54.41;100778.59;1729219;82;20918;-66
2021/05/12 03:52:49;;;;;;;2.90;1.17;;;;;;;11.54;54.63;100772.94;1735655;82;20882;-68
2021/05/12 03:55:15;;;;;;;3.33;1.00;;;;;;;11.55;54.92;100775.95;1726304;82;20981;-64
2021/05/12 03:57:42;;;;;;;3.95;1.15;;;;;;;11.57;54.98;100777.16;1737903;82;21008;-65
2021/05/12 04:00:12;;;;;;;2.58;0.80;;;;;;;11.58;54.50;100784.91;1728690;81;21425;-66
2021/05/12 04:02:42;;;;;;;2.17;0.90;;;;;;;11.60;54.74;100784.34;1706107;82;20925;-64
2021/05/12 04:05:10;;;;;;;3.45;0.90;;;;;;;11.65;54.70;100780.86;1703703;82;21021;-62
2021/05/12 04:07:36;;;;;;;2.05;0.72;;;;;;;11.70;54.72;100786.61;1689369;84;21093;-68
2021/05/12 04:10:04;;;;;;;2.98;0.90;;;;;;;11.74;54.50;100785.05;1684489;83;21095;-64
2021/05/12 04:12:32;;;;;;;3.02;0.70;;;;;;;11.78;54.72;100789.94;1693261;82;21202;-67
2021/05/12 04:14:58;;;;;;;2.80;0.90;;;;;;;11.82;54.70;100791.89;1692600;82;21005;-65
2021/05/12 04:17:26;;;;;;;2.75;0.93;;;;;;;11.85;54.64;100795.57;1690390;83;21080;-65
2021/05/12 04:19:53;;;;;;;4.12;1.00;;;;;;;11.88;54.39;100802.79;1687337;82;21766;-68
2021/05/12 04:22:20;;;;;;;4.87;0.90;;;;;;;11.88;54.64;100801.93;1700651;83;21179;-64
2021/05/12 04:24:46;;;;;;;3.27;0.90;;;;;;;11.93;55.26;100795.02;1690037;83;21169;-66
2021/05/12 04:27:13;;;;;;;1.98;0.70;;;;;;;11.98;55.04;100795.48;1660285;84;21152;-69
2021/05/12 04:29:40;;;;;;;2.20;0.70;;;;;;;12.00;55.04;100799.69;1695976;82;21667;-64
2021/05/12 04:32:08;;;;;;;2.33;0.60;;;;;;;12.03;54.52;100802.06;1694025;82;21839;-66
2021/05/12 04:34:34;;;;;;;3.15;0.90;;;;;;;12.04;54.56;100794.52;1691871;82;21119;-67
2021/05/12 04:37:01;;;;;;;2.33;0.80;;;;;;;12.06;54.14;100781.20;1695736;82;21661;-64
2021/05/12 04:39:27;;;;;;;2.00;0.60;;;;;;;12.06;54.24;100789.95;1691381;82;21672;-69
2021/05/12 04:41:53;;;;;;;1.92;0.60;;;;;;;12.11;54.76;100789.59;1696804;83;21102;-65
2021/05/12 04:44:20;;;;;;;1.57;0.68;;;;;;;12.14;54.31;100788.03;1686911;83;21098;-65
2021/05/12 04:46:47;;;;;;;1.60;0.50;;;;;;;12.17;54.65;100793.06;1698677;82;21097;-66
2021/05/12 04:49:14;;;;;;;2.00;0.70;;;;;;;12.22;54.54;100789.58;1697308;83;21125;-71
2021/05/12 04:51:40;;;;;;;2.42;0.80;;;;;;;12.27;54.36;100785.22;1692143;82;21471;-66
2021/05/12 04:54:07;;;;;;;3.60;0.88;;;;;;;12.33;54.53;100786.06;1693397;84;21339;-65
2021/05/12 04:56:33;;;;;;;2.72;0.90;;;;;;;12.36;53.90;100775.75;1688665;82;21144;-66
2021/05/12 04:59:01;;;;;;;1.85;0.70;;;;;;;12.41;54.31;100770.93;1673817;83;21084;-70
2021/05/12 05:01:28;;;;;;;2.65;0.70;;;;;;;12.46;54.08;100776.67;1688839;82;22620;-64
2021/05/12 05:03:55;;;;;;;1.92;0.60;;;;;;;12.52;53.98;100774.83;1694340;82;21124;-67
2021/05/12 05:06:21;;;;;;;2.80;0.82;;;;;;;12.58;54.07;100777.47;1698723;83;21096;-66
2021/05/12 05:08:47;;;;;;;2.25;0.68;;;;;;;12.64;53.73;100783.54;1701782;82;21123;-65
2021/05/12 05:11:13;;;;;;;2.75;0.80;;;;;;;12.67;53.26;100787.74;1704105;82;21427;-66
2021/05/12 05:13:39;;;;;;;2.80;0.90;;;;;;;12.68;53.17;100778.88;1700726;82;21323;-63
2021/05/12 05:16:06;;;;;;;3.12;0.80;;;;;;;12.67;53.10;100789.89;1698160;82;22286;-65
2021/05/12 05:18:32;;;;;;;2.30;0.75;;;;;;;12.68;53.18;100789.43;1675462;82;22239;-63
2021/05/12 05:20:59;;;;;;;2.58;0.90;;;;;;;12.66;53.40;100788.23;1698651;82;21776;-66
2021/05/12 05:23:26;;;;;;;2.83;1.02;;;;;;;12.68;53.75;100788.94;1699083;83;21073;-63
2021/05/12 05:25:53;;;;;;;2.72;0.82;;;;;;;12.74;54.11;100795.05;1697085;82;21907;-69
2021/05/12 05:28:19;;;;;;;2.90;0.78;;;;;;;12.80;53.54;100779.99;1702556;83;21369;-64
2021/05/12 05:30:45;;;;;;;2.55;0.75;;;;;;;12.87;53.24;100779.48;1700739;83;21085;-63
2021/05/12 05:33:30;;;;;;;2.90;1.00;;;;;;;12.90;53.44;100783.20;1694429;82;21084;-62
2021/05/12 05:36:14;;;;;;;5.33;0.72;;;;;;;12.98;53.50;100783.40;1699082;82;21091;-63
2021/05/12 05:38:59;;;;;;;3.50;0.90;;;;;;;13.02;52.62;100784.80;1708288;82;21225;-64
2021/05/12 05:41:43;;;;;;;2.70;1.02;;;;;;;13.08;52.82;100792.23;1694292;82;21081;-63
2021/05/12 05:44:28;;;;;;;2.72;0.62;;;;;;;13.14;52.44;100783.77;1699554;82;21072;-67
2021/05/12 05:47:12;;;;;;;2.35;0.78;;;;;;;13.19;52.36;100789.98;1699687;82;21088;-67
2021/05/12 05:49:58;;;;;;;3.77;1.05;;;;;;;13.26;52.57;100781.88;1700963;82;21063;-69
2021/05/12 05:52:42;;;;;;;4.22;0.82;;;;;;;13.33;52.22;100779.59;1694305;82;21132;-71
2021/05/12 05:55:27;;;;;;;3.75;0.90;;;;;;;13.36;51.73;100781.51;1706239;82;21056;-64
2021/05/12 05:58:11;;;;;;;4.58;0.80;;;;;;;13.38;51.40;100779.56;1701117;82;21079;-69
2021/05/12 06:00:56;;;;;;;2.83;0.80;;;;;;;13.39;51.31;100775.11;1698486;82;21112;-66
2021/05/12 06:03:22;;;;;;;2.75;1.10;;;;;;;13.43;51.06;100778.32;1695001;82;21151;-66
2021/05/12 06:06:06;;;;;;;1.72;0.62;;;;;;;13.48;51.46;100775.66;1698462;82;21531;-64
2021/05/12 06:08:53;;;;;;;1.98;0.50;;;;;;;13.56;51.51;100767.88;1690659;83;20985;-67
2021/05/12 06:11:38;;;;;;;3.10;0.72;;;;;;;13.64;50.79;100779.12;1697831;82;21613;-65
2021/05/12 06:14:23;;;;;;;1.82;0.70;;;;;;;13.70;50.86;100769.34;1693750;82;21125;-64
2021/05/12 06:17:08;;;;;;;1.77;0.60;;;;;;;13.78;50.67;100777.08;1687859;82;21061;-65
2021/05/12 06:19:54;;;;;;;2.40;0.72;;;;;;;13.86;50.46;100767.50;1689369;83;21225;-65
2021/05/12 06:22:38;;;;;;;2.62;0.70;;;;;;;13.96;50.30;100774.64;1692518;83;21306;-65
2021/05/12 06:25:23;;;;;;;2.17;0.55;;;;;;;14.02;49.60;100771.43;1693308;84;21563;-66
2021/05/12 06:28:07;;;;;;;2.75;0.80;;;;;;;14.04;49.56;100778.28;1696931;82;21378;-66
2021/05/12 06:30:52;;;;;;;1.72;0.70;;;;;;;14.08;49.09;100773.05;1689112;83;21121;-65
2021/05/12 06:33:38;;;;;;;2.90;0.72;;;;;;;14.10;49.51;100779.53;1684352;82;21209;-67
2021/05/12 06:36:07;;;;;;;1.62;0.50;;;;;;;14.14;48.78;100771.69;1626939;84;22414;-66
2021/05/12 06:38:51;;;;;;;1.95;0.57;;;;;;;14.18;48.78;100766.45;1695333;82;21725;-64
2021/05/12 06:41:18;;;;;;;1.40;0.40;;;;;;;14.27;49.14;100763.00;1699923;83;21610;-67
2021/05/12 06:43:44;;;;;;;1.57;0.40;;;;;;;14.37;49.08;100756.86;1695293;83;21606;-64
2021/05/12 06:46:10;;;;;;;1.07;0.20;;;;;;;14.52;48.97;100759.45;1692972;82;21120;-67
2021/05/12 06:48:36;;;;;;;1.45;0.40;;;;;;;14.67;48.20;100763.37;1687496;82;21069;-68
2021/05/12 06:51:04;;;;;;;0.93;0.30;;;;;;;14.80;47.02;100759.62;1696843;82;21446;-65
2021/05/12 06:53:33;;;;;;;1.45;0.40;;;;;;;14.88;46.33;100762.87;1683335;82;21146;-70
2021/05/12 06:55:59;;;;;;;0.40;0.20;;;;;;;14.92;46.03;100759.80;1688733;83;21253;-65
2021/05/12 06:58:27;;;;;;;1.35;0.40;;;;;;;14.98;45.99;100756.59;1686078;84;21112;-66
2021/05/12 07:03:38;;;;;;;1.17;0.30;;;;;;;15.13;45.77;100761.42;1793309;77;22517;-65
2021/05/12 07:06:04;;;;;;;0.80;0.35;;;;;;;15.16;45.29;100763.80;1775268;78;21371;-68
2021/05/12 07:08:33;;;;;;;0.85;0.30;;;;;;;15.26;45.12;100759.80;1777032;78;21167;-65
2021/05/12 07:10:59;;;;;;;2.75;0.40;;;;;;;15.34;44.61;100758.09;1776283;78;21610;-65
2021/05/12 07:13:25;;;;;;;0.60;0.20;;;;;;;15.39;44.47;100760.31;1770573;78;20953;-65
2021/05/12 07:15:51;;;;;;;4.25;0.37;;;;;;;15.46;44.25;100756.59;1785178;78;20926;-65
2021/05/12 07:18:18;;;;;;;1.40;0.30;;;;;;;15.49;43.62;100755.81;1771977;78;21044;-64
2021/05/12 07:20:45;;;;;;;1.22;0.30;;;;;;;15.49;43.85;100754.48;1768725;80;21081;-68
2021/05/12 07:23:19;;;;;;;0.70;0.20;;;;;;;15.53;43.67;100759.00;1775854;79;21075;-64
2021/05/12 07:25:40;;;;;;;1.30;0.37;;;;;;;15.55;43.74;100764.52;1776463;78;21060;-63
2021/05/12 07:28:06;;;;;;;0.95;0.30;;;;;;;15.52;44.50;100761.33;1738923;81;21104;-63
2021/05/12 07:30:32;;;;;;;2.67;0.60;;;;;;;15.53;44.66;100764.30;1741805;80;21065;-69
2021/05/12 07:32:58;;;;;;;0.95;0.33;;;;;;;15.54;44.46;100758.86;1716563;81;21133;-62
2021/05/12 07:35:25;;;;;;;5.35;0.78;;;;;;;15.55;44.60;100767.64;1725916;81;21130;-66
2021/05/12 07:37:51;;;;;;;1.22;0.40;;;;;;;15.54;44.75;100759.36;1722930;81;21477;-65
2021/05/12 07:40:17;;;;;;;1.52;0.40;;;;;;;15.54;44.87;100756.70;1701666;81;21678;-64
2021/05/12 07:42:45;;;;;;;3.72;0.60;;;;;;;15.52;44.98;100756.84;1726176;81;21077;-63
2021/05/12 07:45:13;;;;;;;3.42;0.57;;;;;;;15.48;44.45;100755.95;1724496;81;21071;-71
2021/05/12 07:47:39;;;;;;;1.77;0.50;;;;;;;15.39;44.48;100757.16;1721071;81;21042;-66
2021/05/12 07:50:08;;;;;;;1.32;0.40;;;;;;;15.32;44.71;100755.26;1723442;81;21088;-64
2021/05/12 07:52:34;;;;;;;2.40;0.70;;;;;;;15.25;45.15;100761.63;1720703;81;21126;-68
2021/05/12 07:55:00;;;;;;;1.82;0.60;;;;;;;15.22;45.75;100765.88;1726662;82;21104;-64
2021/05/12 07:57:26;;;;;;;1.90;0.72;;;;;;;15.21;45.89;100767.70;1724135;81;21302;-69
2021/05/12 07:59:53;;;;;;;9.00;0.72;;;;;;;15.14;46.18;100769.23;1715516;82;21074;-64
2021/05/12 08:02:19;;;;;;;2.77;0.62;;;;;;;15.06;46.43;100777.06;1708130;82;21112;-64
2021/05/12 08:04:45;;;;;;;1.32;0.47;;;;;;;15.00;46.58;100766.55;1688417;84;21151;-65
2021/05/12 08:07:11;;;;;;;1.72;0.47;;;;;;;15.00;46.90;100766.55;1689635;82;21076;-70
2021/05/12 08:09:38;;;;;;;2.60;0.55;;;;;;;15.00;46.94;100750.66;1689087;82;21088;-66
2021/05/12 08:12:06;;;;;;;2.42;0.50;;;;;;;15.02;46.53;100751.34;1691353;82;21041;-63
2021/05/12 08:14:32;;;;;;;2.17;0.68;;;;;;;15.03;46.64;100754.34;1677637;83;21160;-62
2021/05/12 08:16:58;;;;;;;2.17;0.60;;;;;;;15.08;46.82;100749.09;1700366;83;21741;-65
2021/05/12 08:19:24;;;;;;;1.77;0.50;;;;;;;15.11;47.08;100746.98;1684906;83;21598;-63
2021/05/12 08:21:51;;;;;;;1.02;0.30;;;;;;;15.11;46.69;100744.84;1684550;84;20965;-63
2021/05/12 08:24:17;;;;;;;4.65;0.60;;;;;;;15.09;47.07;100739.68;1682144;83;21673;-64
2021/05/12 08:26:44;;;;;;;1.25;0.42;;;;;;;15.16;47.06;100739.47;1687798;82;21109;-65
2021/05/12 08:29:10;;;;;;;3.02;0.53;;;;;;;15.19;46.53;100734.36;1661340;84;21140;-64
2021/05/12 08:31:38;;;;;;;0.85;0.25;;;;;;;15.20;46.53;100726.77;1662569;84;21131;-65
2021/05/12 08:34:06;;;;;;;1.05;0.30;;;;;;;15.30;46.56;100727.56;1683672;82;22199;-64
2021/05/12 08:36:33;;;;;;;1.07;0.30;;;;;;;15.40;45.00;100721.73;1659946;84;21108;-63
2021/05/12 08:39:00;;;;;;;1.37;0.30;;;;;;;15.48;44.27;100721.48;1661288;84;21131;-65
2021/05/12 08:41:26;;;;;;;2.17;0.30;;;;;;;15.51;44.55;100717.21;1662517;84;21128;-70
2021/05/12 08:43:53;;;;;;;1.50;0.40;;;;;;;15.57;45.10;100710.83;1660765;84;21754;-65
2021/05/12 08:46:19;;;;;;;1.90;0.50;;;;;;;15.67;45.79;100711.25;1661374;84;22724;-64
2021/05/12 08:48:46;;;;;;;1.45;0.40;;;;;;;15.77;44.83;100701.48;1687309;82;21167;-63
2021/05/12 08:51:12;;;;;;;3.00;0.30;;;;;;;15.82;44.36;100706.31;1650328;83;21361;-64
2021/05/12 08:53:38;;;;;;;1.02;0.40;;;;;;;15.86;44.04;100695.27;1649298;85;21136;-64
2021/05/12 08:56:06;;;;;;;1.12;0.53;;;;;;;15.91;44.25;100702.28;1649227;84;21164;-63
2021/05/12 08:58:33;;;;;;;1.52;0.47;;;;;;;15.96;44.51;100697.86;1649562;84;22647;-63
2021/05/12 09:00:59;;;;;;;2.35;0.60;;;;;;;16.00;44.37;100699.21;1660232;83;21719;-65
2021/05/12 09:03:28;;;;;;;2.83;0.60;;;;;;;16.06;44.13;100695.97;1653714;85;21089;-64
2021/05/12 09:05:58;;;;;;;2.87;0.70;;;;;;;16.10;43.38;100696.49;1650205;84;21060;-66
2021/05/12 09:08:27;;;;;;;2.47;0.50;;;;;;;16.15;43.87;100688.44;1653506;85;21087;-64
2021/05/12 09:10:54;;;;;;;2.10;0.50;;;;;;;16.23;43.98;100679.69;1653683;85;22642;-64
2021/05/12 09:13:43;;;;;;;1.62;0.47;;;;;;;16.31;43.73;100683.75;1646943;83;22589;-67
2021/05/12 09:16:29;;;;;;;2.08;0.50;;;;;;;16.33;42.97;100671.65;1646375;83;21576;-64
2021/05/12 09:19:10;;;;;;;1.82;0.50;;;;;;;16.28;43.04;100677.91;1678228;83;20969;-62
2021/05/12 09:21:54;;;;;;;2.75;0.75;;;;;;;16.28;43.61;100672.61;1703856;82;21536;-65
2021/05/12 09:24:37;;;;;;;2.55;0.50;;;;;;;16.32;43.33;100670.83;1651333;85;22657;-65
2021/05/12 09:27:15;;;;;;;1.72;0.60;;;;;;;16.44;43.37;100671.89;1651385;85;21679;-71
2021/05/12 09:29:42;;;;;;;3.35;0.65;;;;;;;16.59;42.58;100668.19;1676695;82;20986;-64
2021/05/12 09:32:14;;;;;;;2.27;0.50;;;;;;;16.66;42.07;100662.58;1704044;82;20969;-64
2021/05/12 09:35:02;;;;;;;1.45;0.47;;;;;;;16.69;42.45;100652.50;1670898;83;21188;-63
2021/05/12 09:37:39;;;;;;;1.40;0.50;;;;;;;16.72;42.93;100652.67;1668647;82;22678;-64
2021/05/12 09:40:15;;;;;;;1.80;0.47;;;;;;;16.77;41.86;100649.05;1680208;83;21088;-64
2021/05/12 09:42:43;;;;;;;1.32;0.37;;;;;;;16.80;41.79;100643.42;1675208;83;21008;-63
2021/05/12 09:45:18;;;;;;;3.10;0.40;;;;;;;16.83;41.02;100644.95;1683592;83;21046;-64
2021/05/12 09:47:47;;;;;;;0.98;0.40;;;;;;;16.85;40.77;100653.12;1669678;82;20989;-63
2021/05/12 09:50:26;;;;;;;2.90;0.42;;;;;;;16.84;40.48;100649.25;1682749;83;22546;-63
2021/05/12 09:52:57;;;;;;;3.10;0.55;;;;;;;16.80;41.02;100653.23;1674870;82;21060;-64
2021/05/12 09:55:36;;;;;;;1.57;0.68;;;;;;;16.75;41.42;100656.35;1673537;82;21842;-65
2021/05/12 09:58:08;;;;;;;1.80;0.35;;;;;;;16.65;41.31;100657.77;1670873;83;21764;-63
2021/05/12 10:00:38;;;;;;;1.77;0.42;;;;;;;16.59;42.29;100653.58;1675794;82;21133;-64
2021/05/12 10:03:05;;;;;;;1.70;0.47;;;;;;;16.58;41.89;100658.06;1680198;83;22637;-64
2021/05/12 10:05:58;;;;;;;0.90;0.25;;;;;;;16.56;41.90;100653.41;1729649;80;21786;-67
2021/05/12 10:08:33;;;;;;;1.90;0.30;;;;;;;16.56;41.62;100653.88;1674483;83;21014;-63
2021/05/12 10:11:02;;;;;;;2.05;0.53;;;;;;;16.61;42.36;100652.45;1671494;83;21116;-64
2021/05/12 10:13:30;;;;;;;1.62;0.57;;;;;;;16.68;41.58;100645.52;1673332;83;22329;-63
2021/05/12 10:15:56;;;;;;;1.57;0.30;;;;;;;16.70;41.09;100639.54;1743167;80;22585;-62
2021/05/12 10:18:24;;;;;;;2.62;0.80;;;;;;;16.78;41.76;100648.07;1718529;80;21226;-64
2021/05/12 10:20:56;;;;;;;6.03;0.40;;;;;;;16.85;41.03;100639.01;1757016;80;21061;-63
2021/05/12 10:23:19;;;;;;;1.57;0.53;;;;;;;16.88;41.18;100640.02;1722360;80;21061;-62
2021/05/12 10:25:45;;;;;;;1.40;0.47;;;;;;;16.90;41.33;100633.55;1709217;80;21065;-62
2021/05/12 10:28:11;;;;;;;2.10;0.60;;;;;;;16.93;41.91;100639.05;1721538;80;22704;-65
2021/05/12 10:30:37;;;;;;;1.25;0.30;;;;;;;16.96;40.98;100635.23;1677024;83;21607;-67
2021/05/12 10:33:08;;;;;;;1.15;0.30;;;;;;;16.95;40.65;100642.89;1730971;80;21109;-64
2021/05/12 10:35:38;;;;;;;2.72;0.30;;;;;;;16.90;40.67;100640.19;1722157;80;21069;-64
2021/05/12 10:38:08;;;;;;;0.93;0.33;;;;;;;16.87;40.70;100634.36;1734282;80;21136;-67
2021/05/12 10:40:40;;;;;;;1.75;0.30;;;;;;;16.82;41.07;100631.31;1723399;80;23398;-63
2021/05/12 10:45:59;;;;;;;1.37;0.50;;;;;;;16.81;41.76;100646.44;1723021;81;21124;-63
2021/05/12 10:48:36;;;;;;;1.32;0.47;;;;;;;16.89;41.75;100634.55;1734583;80;21610;-62
2021/05/12 10:51:05;;;;;;;2.58;0.50;;;;;;;17.04;41.41;100631.28;1717027;81;21140;-64
2021/05/12 10:53:34;;;;;;;1.98;0.50;;;;;;;17.18;41.45;100622.72;1729316;80;23251;-63
2021/05/12 10:56:03;;;;;;;1.67;0.50;;;;;;;17.34;40.41;100619.78;1723512;80;21581;-63
2021/05/12 10:58:33;;;;;;;1.17;0.37;;;;;;;17.38;40.05;100614.45;1726371;80;21072;-63
2021/05/12 11:01:05;;;;;;;1.15;0.55;;;;;;;17.40;40.32;100615.12;1732233;80;21234;-63
2021/05/12 11:03:55;;;;;;;1.55;0.37;;;;;;;17.40;40.51;100608.00;1729225;80;21120;-64
2021/05/12 11:06:28;;;;;;;1.50;0.45;;;;;;;17.44;40.44;100608.00;1720719;80;22585;-64
2021/05/12 11:09:22;;;;;;;1.47;0.45;;;;;;;17.46;40.70;100606.51;1678487;82;21139;-63
2021/05/12 11:11:57;;;;;;;2.02;0.53;;;;;;;17.50;40.66;100601.69;1678757;83;21129;-66
2021/05/12 11:14:34;;;;;;;3.45;0.72;;;;;;;17.64;40.60;100592.58;1736230;80;21139;-64
2021/05/12 11:17:17;;;;;;;1.07;0.45;;;;;;;17.80;41.01;100590.45;1733534;80;21535;-62
2021/05/12 11:20:03;;;;;;;1.40;0.35;;;;;;;17.93;40.45;100584.65;1676730;83;22655;-65
2021/05/12 11:33:36;;;;;;;3.30;0.60;;;;;;;17.69;39.48;100581.95;1731350;80;22568;-65
2021/05/12 11:36:17;;;;;;;3.15;0.30;;;;;;;17.54;39.59;100579.10;1726526;82;21631;-65
2021/05/12 11:38:43;;;;;;;1.20;0.42;;;;;;;17.47;39.76;100578.92;1723556;80;21633;-63
2021/05/12 11:41:12;;;;;;;1.82;0.40;;;;;;;17.44;39.59;100573.41;1716475;80;21806;-64
2021/05/12 11:44:02;;;;;;;2.12;0.60;;;;;;;17.46;39.87;100575.41;1724709;80;21125;-66
2021/05/12 11:46:36;;;;;;;1.25;0.40;;;;;;;17.48;39.50;100569.92;1724688;80;23304;-63
2021/05/12 11:49:09;;;;;;;1.15;0.57;;;;;;;17.52;39.19;100575.78;1733161;80;21077;-64
2021/05/12 11:51:47;;;;;;;1.40;0.47;;;;;;;17.50;38.98;100571.95;1724626;80;21555;-62
2021/05/12 11:54:24;;;;;;;1.90;0.53;;;;;;;17.51;39.18;100562.95;1722017;80;21117;-64